Flight Track Log - Related Links

Times and Time Zones

All times are in EDT time to prevent confusion due to time zone crossing. See the N6319G flight status page for this flight to view local times or setup timezone preferences in your user account.

Time Position Orientation Groundspeed Altitude Reporting Facility
EDT Latitude Longitude Course Direction KTS MPH feet Rate Location/Type
Sat 06:55:56 PM 40.0842 -92.5442 20° North 53 61 1,600  Level Kansas City Center
Sat 06:56:58 PM 40.1047 -92.5344 20° North 105 121 2,300 732 Climbing Kansas City Center
Sat 06:57:59 PM 40.1264 -92.5164 33° Northeast 87 100 3,100 732 Climbing Kansas City Center
Sat 06:59:01 PM 40.1472 -92.5014 29° Northeast 85 98 3,800 634 Climbing Kansas City Center
Sat 07:00:02 PM 40.1678 -92.4853 31° Northeast 86 99 4,400 585 Climbing Kansas City Center
Sat 07:01:04 PM 40.1894 -92.4683 31° Northeast 89 102 5,000 293 Climbing Kansas City Center
Sat 07:02:05 PM 40.2186 -92.4458 30° Northeast 109 125 5,000  Level Kansas City Center
Sat 07:03:07 PM 40.2561 -92.4178 30° Northeast 125 144 5,000  Level Kansas City Center
Sat 07:04:08 PM 40.2856 -92.3939 32° Northeast 127 146 5,000  Level Kansas City Center
Sat 07:05:10 PM 40.3164 -92.3706 30° Northeast 128 147 5,000  Level Kansas City Center
Sat 07:06:11 PM 40.3475 -92.3464 31° Northeast 130 150 5,000  Level Kansas City Center
Sat 07:07:13 PM 40.3781 -92.3231 30° Northeast 129 148 5,000  Level Kansas City Center
Sat 07:08:14 PM 40.4150 -92.2942 31° Northeast 129 148 5,000  Level Kansas City Center
Sat 07:09:15 PM 40.4458 -92.2700 31° Northeast 130 150 5,000  Level Kansas City Center
Sat 07:10:17 PM 40.4758 -92.2467 31° Northeast 129 148 5,000  Level Kansas City Center
Sat 07:11:19 PM 40.5069 -92.2219 31° Northeast 130 150 5,000  Level Kansas City Center
Sat 07:12:20 PM 40.5378 -92.1992 29° Northeast 129 148 5,000 49 Level Kansas City Center
Sat 07:13:22 PM 40.5689 -92.1758 30° Northeast 130 150 5,100  Climbing Kansas City Center
Sat 07:14:23 PM 40.6058 -92.1461 31° Northeast 130 150 5,000 -51 Descending Kansas City Center
Sat 07:15:19 PM 40.6306 -92.1261 32° Northeast 130 150 5,000  Level Chicago Center
Sat 07:16:21 PM 40.6617 -92.1022 30° Northeast 131 151 5,000  Level Chicago Center
Sat 07:17:22 PM 40.6986 -92.0736 30° Northeast 130 150 5,000  Level Chicago Center
Sat 07:18:23 PM 40.7297 -92.0489 31° Northeast 130 150 5,000 49 Level Chicago Center
Sat 07:19:25 PM 40.7608 -92.0253 30° Northeast 130 150 5,100  Climbing Chicago Center
Sat 07:20:26 PM 40.7917 -92.0019 30° Northeast 129 148 5,000 -49 Descending Chicago Center
Sat 07:21:27 PM 40.8214 -91.9778 32° Northeast 128 147 5,000 49 Level Chicago Center
Sat 07:22:29 PM 40.8514 -91.9547 30° Northeast 127 146 5,100 49 Climbing Chicago Center
Sat 07:23:30 PM 40.8811 -91.9308 31° Northeast 127 146 5,100 -49 Level Chicago Center
Sat 07:24:32 PM 40.9178 -91.9008 32° Northeast 128 147 5,000  Descending Chicago Center
Sat 07:25:33 PM 40.9486 -91.8783 29° Northeast 128 147 5,100 49 Climbing Chicago Center
Sat 07:26:34 PM 40.9783 -91.8533 32° Northeast 128 147 5,100 -49 Level Chicago Center
Sat 07:27:36 PM 41.0086 -91.8286 32° Northeast 128 147 5,000  Descending Chicago Center
Sat 07:28:37 PM 41.0411 -91.8056 28° Northeast 131 151 5,100  Climbing Chicago Center
Sat 07:29:38 PM 41.0722 -91.7806 31° Northeast 131 151 5,000 -49 Descending Chicago Center
Sat 07:30:40 PM 41.1031 -91.7561 31° Northeast 131 151 5,000  Level Chicago Center
Sat 07:31:41 PM 41.1400 -91.7267 31° Northeast 131 151 5,000 49 Level Chicago Center
Sat 07:32:43 PM 41.1711 -91.7019 31° Northeast 130 150 5,100 49 Climbing Chicago Center
Sat 07:33:44 PM 41.2050 -91.6803 26° Northeast 134 154 5,100 -49 Level Chicago Center
Sat 07:34:45 PM 41.2378 -91.6531 32° Northeast 132 152 5,000 -49 Descending Chicago Center
Sat 07:35:47 PM 41.2694 -91.6281 31° Northeast 128 147 5,000  Level Chicago Center
Sat 07:36:48 PM 41.2989 -91.6047 31° Northeast 126 145 5,000  Level Chicago Center
Sat 07:37:49 PM 41.3303 -91.5781 33° Northeast 132 152 5,000  Level Chicago Center
Sat 07:38:51 PM 41.3619 -91.5539 30° Northeast 132 152 5,000  Level Chicago Center
Sat 07:39:52 PM 41.3919 -91.5292 32° Northeast 130 150 5,000  Level Chicago Center
Sat 07:40:53 PM 41.4222 -91.5033 33° Northeast 130 150 5,000  Level Chicago Center
Sat 07:41:55 PM 41.4592 -91.4747 30° Northeast 128 147 5,000 49 Level Chicago Center
Sat 07:42:56 PM 41.4897 -91.4506 31° Northeast 129 148 5,100 49 Climbing Chicago Center
Sat 07:43:58 PM 41.5200 -91.4272 30° Northeast 128 147 5,100 -49 Level Chicago Center
Sat 07:44:59 PM 41.5508 -91.4028 31° Northeast 129 148 5,000  Descending Chicago Center
Sat 07:46:00 PM 41.5808 -91.3792 30° Northeast 127 146 5,100 49 Climbing Chicago Center
Sat 07:47:02 PM 41.6117 -91.3542 31° Northeast 130 150 5,100 -49 Level Chicago Center
Sat 07:48:03 PM 41.6492 -91.3236 31° Northeast 132 152 5,000 -49 Descending Chicago Center
Sat 07:49:04 PM 41.6789 -91.3014 29° Northeast 128 147 5,000  Level Chicago Center
Sat 07:50:06 PM 41.7103 -91.2764 31° Northeast 130 150 5,000  Level Chicago Center
Sat 07:51:07 PM 41.7408 -91.2506 32° Northeast 131 151 5,000 49 Level Chicago Center
Sat 07:52:09 PM 41.7717 -91.2256 31° Northeast 131 151 5,100  Climbing Chicago Center
Sat 07:53:10 PM 41.8014 -91.2008 32° Northeast 129 148 5,000 -49 Descending Chicago Center
Sat 07:54:11 PM 41.8314 -91.1775 30° Northeast 127 146 5,000  Level Chicago Center
Sat 07:55:13 PM 41.8686 -91.1467 32° Northeast 130 150 5,000  Level Chicago Center
Sat 07:56:14 PM 41.8983 -91.1217 32° Northeast 129 148 5,000  Level Chicago Center
Sat 07:57:15 PM 41.9292 -91.0967 31° Northeast 130 150 5,000  Level Chicago Center
Sat 07:58:17 PM 41.9583 -91.0714 33° Northeast 129 148 5,000  Level Chicago Center
Sat 07:59:18 PM 41.9908 -91.0481 28° Northeast 131 151 5,000  Level Chicago Center
Sat 08:00:19 PM 42.0211 -91.0231 32° Northeast 130 150 5,000  Level Chicago Center
Sat 08:01:20 PM 42.0558 -90.9931 33° Northeast 127 146 5,000 -244 Level Chicago Center
Sat 08:02:22 PM 42.0872 -90.9692 29° Northeast 128 147 4,500 -878 Descending Chicago Center
Sat 08:03:23 PM 42.1206 -90.9422 31° Northeast 133 153 3,200 -738 Descending Chicago Center
Sat 08:04:24 PM 42.1514 -90.9147 33° Northeast 135 155 3,000 -98 Descending Chicago Center
Sat 08:05:26 PM 42.1800 -90.8906 32° Northeast 131 151 3,000  Level Chicago Center

Login

Don't have an account? Register now (free) for customized features, flight alerts, and more!